createdAt,value
2022-08-26T00:00:39.965Z,99.99
2022-08-26T00:01:39.972Z,99.99
2022-08-26T00:02:40.022Z,99.99
2022-08-26T00:03:40.026Z,99.99
2022-08-26T00:04:39.977Z,99.99
2022-08-26T00:05:39.980Z,99.99
2022-08-26T00:06:42.649Z,99.99
2022-08-26T00:07:39.988Z,99.99
2022-08-26T00:08:40.002Z,99.99
2022-08-26T00:09:40.219Z,99.99
2022-08-26T00:10:40.004Z,99.99
2022-08-26T00:11:40.002Z,99.99
2022-08-26T00:12:40.001Z,99.99
2022-08-26T00:13:40.009Z,99.99
2022-08-26T00:14:40.009Z,99.99
2022-08-26T00:15:40.010Z,99.99
2022-08-26T00:16:40.784Z,99.99
2022-08-26T00:17:40.227Z,99.99
2022-08-26T00:18:40.842Z,99.99
2022-08-26T00:19:40.024Z,99.99
2022-08-26T00:20:40.032Z,99.99
2022-08-26T00:21:40.354Z,99.99
2022-08-26T00:22:40.036Z,99.99
2022-08-26T00:23:40.032Z,99.99
2022-08-26T00:24:40.041Z,99.99
2022-08-26T00:25:42.558Z,99.99
2022-08-26T00:26:40.045Z,99.99
2022-08-26T00:27:40.051Z,99.99
2022-08-26T00:28:40.275Z,99.99
2022-08-26T00:29:40.049Z,99.99
2022-08-26T00:30:40.070Z,99.99
2022-08-26T00:31:40.147Z,99.99
2022-08-26T00:32:40.060Z,99.99
2022-08-26T00:33:40.065Z,99.99
2022-08-26T00:34:40.076Z,99.99
2022-08-26T00:35:40.071Z,99.99
2022-08-26T00:36:40.601Z,99.99
2022-08-26T00:37:40.076Z,99.99
2022-08-26T00:38:40.076Z,99.99
2022-08-26T00:39:40.088Z,99.99
2022-08-26T00:40:40.086Z,99.99
2022-08-26T00:41:40.086Z,99.99
2022-08-26T00:42:40.092Z,99.99
2022-08-26T00:43:47.251Z,99.99
2022-08-26T00:44:40.092Z,99.99
2022-08-26T00:45:40.263Z,99.99
2022-08-26T00:46:40.098Z,99.99
2022-08-26T00:47:40.099Z,99.99
2022-08-26T00:48:40.102Z,99.99
2022-08-26T00:49:40.112Z,99.99
2022-08-26T00:50:40.111Z,99.99
2022-08-26T00:51:40.110Z,99.99
2022-08-26T00:52:40.113Z,99.99
2022-08-26T00:53:40.116Z,99.99
2022-08-26T00:54:40.122Z,99.99
2022-08-26T00:55:40.138Z,99.99
2022-08-26T00:56:40.130Z,99.99
2022-08-26T00:57:40.131Z,99.99
2022-08-26T00:58:40.132Z,99.99
2022-08-26T00:59:40.130Z,99.99
2022-08-26T01:00:40.164Z,99.99
2022-08-26T01:01:40.141Z,99.99
2022-08-26T01:02:40.208Z,99.99
2022-08-26T01:03:40.147Z,99.99
2022-08-26T01:04:40.150Z,99.99
2022-08-26T01:05:40.154Z,99.99
2022-08-26T01:06:40.152Z,99.99
2022-08-26T01:07:40.150Z,99.99
2022-08-26T01:08:40.164Z,99.99
2022-08-26T01:09:40.162Z,99.99
2022-08-26T01:10:40.169Z,99.99
2022-08-26T01:11:40.169Z,99.99
2022-08-26T01:12:40.418Z,99.99
2022-08-26T01:13:40.173Z,99.99
2022-08-26T01:14:40.176Z,99.99
2022-08-26T01:15:40.183Z,99.99
2022-08-26T01:16:40.221Z,99.99
2022-08-26T01:17:40.179Z,99.99
2022-08-26T01:18:40.190Z,99.99
2022-08-26T01:19:40.189Z,99.99
2022-08-26T01:20:40.197Z,99.99
2022-08-26T01:21:40.698Z,99.99
2022-08-26T01:22:40.200Z,99.99
2022-08-26T01:23:40.198Z,99.99
2022-08-26T01:24:40.201Z,99.99
2022-08-26T01:25:40.204Z,99.99
2022-08-26T01:26:40.210Z,99.99
2022-08-26T01:27:40.213Z,99.99
2022-08-26T01:28:40.215Z,99.99
2022-08-26T01:29:40.216Z,99.99
2022-08-26T01:30:40.224Z,99.99
2022-08-26T01:31:40.268Z,99.99
2022-08-26T01:32:40.220Z,99.99
2022-08-26T01:33:42.084Z,99.99
2022-08-26T01:34:40.227Z,99.99
2022-08-26T01:35:40.234Z,99.99
2022-08-26T01:36:40.232Z,99.99
2022-08-26T01:37:40.504Z,99.99
2022-08-26T01:38:40.240Z,99.99
2022-08-26T01:39:40.318Z,99.99
2022-08-26T01:40:40.245Z,99.99
2022-08-26T01:41:40.244Z,99.99
2022-08-26T01:42:40.251Z,99.99
2022-08-26T01:43:40.253Z,99.99
2022-08-26T01:44:40.253Z,99.99
2022-08-26T01:45:40.337Z,99.99
2022-08-26T01:46:40.260Z,99.99
2022-08-26T01:47:40.264Z,99.99
2022-08-26T01:48:40.264Z,99.99
2022-08-26T01:49:40.263Z,99.99
2022-08-26T01:50:40.274Z,99.99
2022-08-26T01:51:40.274Z,99.99
2022-08-26T01:52:40.279Z,99.99
2022-08-26T01:53:41.805Z,99.99
2022-08-26T01:54:40.286Z,99.99
2022-08-26T01:55:40.284Z,99.99
2022-08-26T01:56:40.286Z,99.99
2022-08-26T01:57:40.290Z,99.99
2022-08-26T01:58:40.293Z,99.99
2022-08-26T01:59:40.296Z,99.99
2022-08-26T02:00:40.355Z,99.99
2022-08-26T02:01:40.305Z,99.99
2022-08-26T02:02:40.306Z,99.99
2022-08-26T02:03:40.389Z,99.99
2022-08-26T02:04:40.380Z,99.99
2022-08-26T02:05:40.312Z,99.99
2022-08-26T02:06:40.314Z,99.99
2022-08-26T02:07:40.320Z,99.99
2022-08-26T02:08:40.318Z,99.99
2022-08-26T02:09:41.202Z,99.99
2022-08-26T02:10:40.321Z,99.99
2022-08-26T02:11:40.324Z,99.99
2022-08-26T02:12:40.331Z,99.99
2022-08-26T02:13:40.329Z,99.99
2022-08-26T02:14:43.766Z,99.99
2022-08-26T02:15:40.334Z,99.99
2022-08-26T02:16:42.458Z,99.99
2022-08-26T02:17:40.342Z,99.99
2022-08-26T02:18:40.345Z,99.99
2022-08-26T02:19:40.345Z,99.99
2022-08-26T02:20:40.347Z,99.99
2022-08-26T02:21:40.347Z,99.99
2022-08-26T02:22:40.356Z,99.99
2022-08-26T02:23:40.357Z,99.99
2022-08-26T02:24:40.366Z,99.99
2022-08-26T02:25:40.372Z,99.99
2022-08-26T02:26:40.363Z,99.99
2022-08-26T02:27:40.370Z,99.99
2022-08-26T02:28:40.371Z,99.99
2022-08-26T02:29:40.377Z,99.99
2022-08-26T02:30:40.374Z,99.99
2022-08-26T02:31:40.402Z,99.99
2022-08-26T02:32:40.377Z,99.99
2022-08-26T02:33:43.023Z,99.99
2022-08-26T02:34:40.385Z,99.99
2022-08-26T02:35:40.387Z,99.99
2022-08-26T02:36:40.391Z,99.99
2022-08-26T02:37:41.843Z,99.99
2022-08-26T02:38:40.397Z,99.99
2022-08-26T02:39:40.402Z,99.99
2022-08-26T02:40:40.406Z,99.99
2022-08-26T02:41:45.137Z,99.99
2022-08-26T02:42:40.406Z,99.99
2022-08-26T02:43:40.410Z,99.99
2022-08-26T02:44:40.416Z,99.99
2022-08-26T02:45:40.409Z,99.99
2022-08-26T02:46:40.487Z,99.99
2022-08-26T02:47:40.418Z,99.99
2022-08-26T02:48:40.419Z,99.99
2022-08-26T02:49:40.431Z,99.99
2022-08-26T02:50:40.752Z,99.99
2022-08-26T02:51:40.426Z,99.99
2022-08-26T02:52:40.426Z,99.99
2022-08-26T02:53:40.431Z,99.99
2022-08-26T02:54:40.436Z,99.99
2022-08-26T02:55:40.439Z,99.99
2022-08-26T02:56:40.440Z,99.99
2022-08-26T02:57:40.442Z,99.99
2022-08-26T02:58:40.448Z,99.99
2022-08-26T02:59:40.446Z,99.99
2022-08-26T03:00:53.520Z,99.99
2022-08-26T03:01:40.609Z,99.99
2022-08-26T03:02:40.454Z,99.99
2022-08-26T03:03:40.456Z,99.99
2022-08-26T03:04:40.460Z,99.99
2022-08-26T03:05:40.464Z,99.99
2022-08-26T03:06:40.669Z,99.99
2022-08-26T03:07:40.468Z,99.99
2022-08-26T03:08:40.471Z,99.99
2022-08-26T03:09:40.473Z,99.99
2022-08-26T03:10:40.477Z,99.99
2022-08-26T03:11:40.476Z,99.99
2022-08-26T03:12:40.480Z,99.99
2022-08-26T03:13:40.484Z,99.99
2022-08-26T03:14:40.483Z,99.99
2022-08-26T03:15:40.486Z,99.99
2022-08-26T03:16:40.489Z,99.99
2022-08-26T03:17:40.496Z,99.99
2022-08-26T03:18:40.492Z,99.99
2022-08-26T03:19:40.499Z,99.99
2022-08-26T03:20:40.496Z,99.99
2022-08-26T03:21:40.511Z,99.99
2022-08-26T03:22:40.500Z,99.99
2022-08-26T03:23:40.509Z,99.99
2022-08-26T03:24:40.507Z,99.99
2022-08-26T03:25:40.510Z,99.99
2022-08-26T03:26:40.508Z,99.99
2022-08-26T03:27:40.516Z,99.99
2022-08-26T03:28:40.519Z,99.99
2022-08-26T03:29:40.518Z,99.99
2022-08-26T03:30:45.233Z,99.99
2022-08-26T03:31:40.623Z,99.99
2022-08-26T03:32:41.497Z,99.99
2022-08-26T03:33:40.529Z,99.99
2022-08-26T03:34:40.532Z,99.99
2022-08-26T03:35:40.538Z,99.99
2022-08-26T03:36:41.692Z,99.99
2022-08-26T03:37:40.543Z,99.99
2022-08-26T03:38:40.544Z,99.99
2022-08-26T03:39:40.548Z,99.99
2022-08-26T03:40:40.545Z,99.99
2022-08-26T03:41:40.560Z,99.99
2022-08-26T03:42:40.555Z,99.99
2022-08-26T03:43:40.563Z,99.99
2022-08-26T03:44:42.124Z,99.99
2022-08-26T03:45:40.560Z,99.99
2022-08-26T03:46:40.636Z,99.99
2022-08-26T03:47:40.567Z,99.99
2022-08-26T03:48:40.571Z,99.99
2022-08-26T03:49:40.651Z,99.99
2022-08-26T03:50:40.572Z,99.99
2022-08-26T03:51:40.577Z,99.99
2022-08-26T03:52:43.711Z,99.99
2022-08-26T03:53:40.582Z,99.99
2022-08-26T03:54:40.582Z,99.99
2022-08-26T03:55:40.586Z,99.99
2022-08-26T03:56:40.591Z,99.99
2022-08-26T03:57:40.586Z,99.99
2022-08-26T03:58:42.810Z,99.99
2022-08-26T03:59:41.304Z,99.99
2022-08-26T04:00:40.595Z,99.99
2022-08-26T04:01:40.709Z,99.99
2022-08-26T04:02:40.632Z,99.99
2022-08-26T04:03:40.604Z,99.99
2022-08-26T04:04:40.604Z,99.99
2022-08-26T04:05:40.613Z,99.99
2022-08-26T04:06:40.609Z,99.99
2022-08-26T04:07:40.612Z,99.99
2022-08-26T04:08:40.637Z,99.99
2022-08-26T04:09:40.616Z,99.99
2022-08-26T04:10:40.619Z,99.99
2022-08-26T04:11:40.620Z,99.99
2022-08-26T04:12:40.624Z,99.99
2022-08-26T04:13:40.628Z,99.99
2022-08-26T04:14:40.625Z,99.99
2022-08-26T04:15:40.631Z,99.99
2022-08-26T04:16:40.635Z,99.99
2022-08-26T04:17:40.640Z,99.99
2022-08-26T04:18:46.684Z,99.99
2022-08-26T04:19:40.640Z,99.99
2022-08-26T04:20:40.642Z,99.99
2022-08-26T04:21:40.643Z,99.99
2022-08-26T04:22:40.675Z,99.99
2022-08-26T04:23:47.518Z,99.99
2022-08-26T04:24:40.649Z,99.99
2022-08-26T04:25:40.656Z,99.99
2022-08-26T04:26:42.713Z,99.99
2022-08-26T04:27:40.807Z,99.99
2022-08-26T04:28:40.660Z,99.99
2022-08-26T04:29:40.665Z,99.99
2022-08-26T04:30:40.669Z,99.99
2022-08-26T04:31:40.714Z,99.99
2022-08-26T04:32:40.676Z,99.99
2022-08-26T04:33:41.653Z,99.99
2022-08-26T04:34:40.673Z,99.99
2022-08-26T04:35:40.678Z,99.99
2022-08-26T04:36:40.678Z,99.99
2022-08-26T04:37:43.151Z,99.99
2022-08-26T04:38:40.689Z,99.99
2022-08-26T04:39:40.689Z,99.99
2022-08-26T04:40:40.693Z,99.99
2022-08-26T04:41:40.693Z,99.99
2022-08-26T04:42:40.695Z,99.99
2022-08-26T04:43:40.703Z,99.99
2022-08-26T04:44:40.696Z,99.99
2022-08-26T04:45:40.701Z,99.99
2022-08-26T04:46:43.985Z,99.99
2022-08-26T04:47:40.706Z,99.99
2022-08-26T04:48:40.704Z,99.99
2022-08-26T04:49:40.710Z,99.99
2022-08-26T04:50:40.712Z,99.99
2022-08-26T04:51:40.716Z,99.99
2022-08-26T04:52:40.721Z,99.99
2022-08-26T04:53:40.726Z,99.99
2022-08-26T04:54:41.994Z,99.99
2022-08-26T04:55:44.974Z,99.99
2022-08-26T04:56:40.724Z,99.99
2022-08-26T04:57:40.735Z,99.99
2022-08-26T04:58:40.733Z,99.99
2022-08-26T04:59:40.744Z,99.99
2022-08-26T05:00:40.736Z,99.99
2022-08-26T05:01:40.769Z,99.99
2022-08-26T05:02:40.742Z,99.99
2022-08-26T05:03:40.877Z,99.99
2022-08-26T05:04:40.743Z,99.99
2022-08-26T05:05:40.747Z,99.99
2022-08-26T05:06:40.753Z,99.99
2022-08-26T05:07:40.755Z,99.99
2022-08-26T05:08:40.763Z,99.99
2022-08-26T05:09:40.761Z,99.99
2022-08-26T05:10:40.755Z,99.99
2022-08-26T05:11:40.764Z,99.99
2022-08-26T05:12:40.764Z,99.99
2022-08-26T05:13:40.770Z,99.99
2022-08-26T05:14:40.780Z,99.99
2022-08-26T05:15:40.817Z,99.99
2022-08-26T05:16:40.774Z,99.99
2022-08-26T05:17:40.780Z,99.99
2022-08-26T05:18:40.780Z,99.99
2022-08-26T05:19:43.008Z,99.99
2022-08-26T05:20:40.799Z,99.99
2022-08-26T05:21:40.795Z,99.99
2022-08-26T05:22:40.793Z,99.99
2022-08-26T05:23:40.794Z,99.99
2022-08-26T05:24:40.795Z,99.99
2022-08-26T05:25:40.802Z,99.99
2022-08-26T05:26:40.799Z,99.99
2022-08-26T05:27:40.813Z,99.99
2022-08-26T05:28:40.801Z,99.99
2022-08-26T05:29:40.811Z,99.99
2022-08-26T05:30:40.857Z,99.99
2022-08-26T05:31:40.815Z,99.99
2022-08-26T05:32:40.816Z,99.99
2022-08-26T05:33:41.319Z,99.99
2022-08-26T05:34:40.819Z,99.99
2022-08-26T05:35:40.821Z,99.99
2022-08-26T05:36:40.823Z,99.99
2022-08-26T05:37:40.827Z,99.99
2022-08-26T05:38:40.831Z,99.99
2022-08-26T05:39:41.308Z,99.99
2022-08-26T05:40:40.878Z,99.99
2022-08-26T05:41:40.840Z,99.99
2022-08-26T05:42:40.840Z,99.99
2022-08-26T05:43:40.844Z,99.99
2022-08-26T05:44:53.876Z,99.99
2022-08-26T05:45:45.955Z,99.99
2022-08-26T05:46:40.968Z,99.99
2022-08-26T05:47:40.854Z,99.99
2022-08-26T05:48:40.851Z,99.99
2022-08-26T05:49:45.159Z,99.99
2022-08-26T05:50:40.861Z,99.99
2022-08-26T05:51:40.861Z,99.99
2022-08-26T05:52:40.867Z,99.99
2022-08-26T05:53:40.869Z,99.99
2022-08-26T05:54:40.871Z,99.99
2022-08-26T05:55:40.875Z,99.99
2022-08-26T05:56:40.874Z,99.99
2022-08-26T05:57:42.911Z,99.99
2022-08-26T05:58:40.881Z,99.99
2022-08-26T05:59:40.888Z,99.99
2022-08-26T06:00:41.625Z,99.99
2022-08-26T06:01:40.995Z,99.99
2022-08-26T06:02:40.945Z,99.99
2022-08-26T06:03:40.898Z,99.99
2022-08-26T06:04:40.897Z,99.99
2022-08-26T06:05:40.898Z,99.99
2022-08-26T06:06:40.898Z,99.99
2022-08-26T06:07:40.909Z,99.99
2022-08-26T06:08:40.907Z,99.99
2022-08-26T06:09:40.912Z,99.99
2022-08-26T06:10:40.914Z,99.99
2022-08-26T06:11:40.915Z,99.99
2022-08-26T06:12:40.922Z,99.99
2022-08-26T06:13:40.923Z,99.99
2022-08-26T06:14:40.925Z,99.99
2022-08-26T06:15:42.053Z,99.99
2022-08-26T06:16:41.206Z,99.99
2022-08-26T06:17:40.934Z,99.99
2022-08-26T06:18:40.938Z,99.99
2022-08-26T06:19:41.361Z,99.99
2022-08-26T06:20:40.944Z,99.99
2022-08-26T06:21:40.947Z,99.99
2022-08-26T06:22:40.948Z,99.99
2022-08-26T06:23:40.953Z,99.99
2022-08-26T06:24:40.953Z,99.99
2022-08-26T06:25:40.959Z,99.99
2022-08-26T06:26:42.671Z,99.99
2022-08-26T06:27:40.965Z,99.99
2022-08-26T06:28:40.969Z,99.99
2022-08-26T06:29:40.971Z,99.99
2022-08-26T06:30:40.987Z,99.99
2022-08-26T06:31:40.977Z,99.99
2022-08-26T06:32:40.981Z,99.99
2022-08-26T06:33:40.980Z,99.99
2022-08-26T06:34:40.986Z,99.99
2022-08-26T06:35:40.991Z,99.99
2022-08-26T06:36:40.996Z,99.99
2022-08-26T06:37:41.181Z,99.99
2022-08-26T06:38:40.996Z,99.99
2022-08-26T06:39:41.179Z,99.99
2022-08-26T06:40:41.005Z,99.99
2022-08-26T06:41:43.376Z,99.99
2022-08-26T06:42:41.013Z,99.99
2022-08-26T06:43:41.015Z,99.99
2022-08-26T06:44:41.185Z,99.99
2022-08-26T06:45:41.026Z,99.99
2022-08-26T06:46:41.070Z,99.99
2022-08-26T06:47:41.033Z,99.99
2022-08-26T06:48:41.033Z,99.99
2022-08-26T06:49:41.040Z,99.65
2022-08-26T06:50:41.036Z,98.56
2022-08-26T06:51:41.049Z,97.04
2022-08-26T06:52:41.049Z,95.47
2022-08-26T06:53:41.212Z,95.03
2022-08-26T06:54:41.053Z,93.90
2022-08-26T06:55:41.057Z,94.59
2022-08-26T06:56:41.069Z,93.90
2022-08-26T06:57:41.278Z,93.86
2022-08-26T06:58:41.076Z,93.86
2022-08-26T06:59:41.080Z,93.07
2022-08-26T07:00:47.141Z,93.07
2022-08-26T07:01:41.123Z,93.37
2022-08-26T07:02:41.153Z,93.80
2022-08-26T07:03:41.094Z,93.21
2022-08-26T07:04:41.093Z,93.80
2022-08-26T07:05:41.100Z,94.15
2022-08-26T07:06:41.103Z,94.84
2022-08-26T07:07:41.104Z,94.54
2022-08-26T07:08:41.111Z,94.84
2022-08-26T07:09:41.118Z,95.42
2022-08-26T07:10:41.120Z,95.23
2022-08-26T07:11:41.122Z,95.03
2022-08-26T07:12:41.122Z,95.13
2022-08-26T07:13:41.134Z,95.03
2022-08-26T07:14:41.136Z,94.93
2022-08-26T07:15:41.193Z,94.84
2022-08-26T07:16:41.179Z,94.59
2022-08-26T07:17:41.150Z,94.89
2022-08-26T07:18:41.165Z,95.28
2022-08-26T07:19:41.168Z,94.25
2022-08-26T07:20:41.164Z,94.21
2022-08-26T07:21:41.175Z,92.93
2022-08-26T07:22:41.172Z,92.14
2022-08-26T07:23:41.185Z,93.08
2022-08-26T07:24:41.189Z,91.56
2022-08-26T07:25:41.192Z,90.15
2022-08-26T07:26:42.980Z,88.73
2022-08-26T07:27:41.205Z,90.26
2022-08-26T07:28:41.209Z,88.75
2022-08-26T07:29:41.212Z,88.90
2022-08-26T07:30:41.269Z,87.38
2022-08-26T07:31:42.691Z,86.04
2022-08-26T07:32:41.237Z,85.11
2022-08-26T07:33:41.237Z,85.21
2022-08-26T07:34:41.925Z,85.17
2022-08-26T07:35:41.251Z,83.53
2022-08-26T07:36:41.257Z,83.43
2022-08-26T07:37:41.268Z,82.22
2022-08-26T07:38:41.270Z,82.86
2022-08-26T07:39:41.279Z,83.46
2022-08-26T07:40:41.285Z,80.89
2022-08-26T07:41:41.291Z,81.04
2022-08-26T07:42:41.302Z,79.59
2022-08-26T07:43:41.306Z,79.61
2022-08-26T07:44:41.316Z,78.99
2022-08-26T07:45:41.323Z,78.33
2022-08-26T07:46:41.335Z,76.93
2022-08-26T07:47:41.338Z,76.79
2022-08-26T07:48:41.345Z,76.18
2022-08-26T07:49:41.434Z,75.95
2022-08-26T07:50:50.288Z,75.62
2022-08-26T07:51:41.371Z,74.23
2022-08-26T07:52:41.382Z,73.90
2022-08-26T07:53:41.388Z,73.86
2022-08-26T07:54:41.401Z,72.86
2022-08-26T07:55:41.407Z,73.89
2022-08-26T07:56:41.417Z,71.83
2022-08-26T07:57:41.423Z,71.70
2022-08-26T07:58:41.437Z,71.18
2022-08-26T07:59:41.446Z,71.34
2022-08-26T08:00:41.456Z,70.15
2022-08-26T08:01:44.886Z,69.09
2022-08-26T08:02:41.474Z,70.34
2022-08-26T08:03:41.483Z,69.28
2022-08-26T08:04:41.543Z,70.92
2022-08-26T08:05:41.599Z,68.76
2022-08-26T08:06:41.514Z,67.74
2022-08-26T08:07:44.758Z,68.44
2022-08-26T08:08:41.533Z,68.77
2022-08-26T08:09:41.542Z,69.48
2022-08-26T08:10:41.567Z,69.67
2022-08-26T08:11:41.568Z,71.89
2022-08-26T08:12:41.587Z,69.42
2022-08-26T08:13:41.590Z,70.26
2022-08-26T08:14:41.601Z,72.19
2022-08-26T08:15:41.603Z,73.93
2022-08-26T08:16:46.134Z,72.73
2022-08-26T08:17:41.628Z,73.79
2022-08-26T08:18:41.645Z,72.96
2022-08-26T08:19:41.649Z,69.97
2022-08-26T08:20:44.688Z,70.87
2022-08-26T08:21:41.673Z,72.26
2022-08-26T08:22:41.684Z,72.45
2022-08-26T08:23:41.691Z,72.68
2022-08-26T08:24:41.707Z,72.81
2022-08-26T08:25:41.713Z,72.66
2022-08-26T08:26:41.736Z,74.24
2022-08-26T08:27:41.740Z,74.92
2022-08-26T08:28:41.744Z,75.21
2022-08-26T08:29:41.759Z,73.79
2022-08-26T08:30:41.877Z,75.05
2022-08-26T08:31:58.374Z,75.44
2022-08-26T08:32:41.785Z,75.02
2022-08-26T08:33:41.800Z,74.82
2022-08-26T08:35:41.821Z,75.21
2022-08-26T08:36:41.840Z,75.02
2022-08-26T08:37:41.850Z,74.05
2022-08-26T08:38:41.859Z,73.27
2022-08-26T08:39:41.870Z,74.15
2022-08-26T08:40:41.882Z,73.66
2022-08-26T08:41:41.890Z,73.91
2022-08-26T08:42:41.936Z,73.72
2022-08-26T08:43:41.913Z,73.95
2022-08-26T08:44:41.925Z,72.40
2022-08-26T08:45:42.018Z,74.82
2022-08-26T08:46:41.952Z,75.02
2022-08-26T08:47:41.965Z,75.11
2022-08-26T08:48:41.973Z,72.34
2022-08-26T08:49:41.984Z,74.41
2022-08-26T08:50:41.994Z,75.19
2022-08-26T08:51:42.018Z,74.45
2022-08-26T08:52:42.022Z,74.19
2022-08-26T08:53:42.031Z,74.77
2022-08-26T08:54:42.044Z,76.23
2022-08-26T08:55:42.057Z,75.03
2022-08-26T08:56:42.070Z,74.80
2022-08-26T08:57:42.079Z,74.41
2022-08-26T08:58:42.093Z,73.21
2022-08-26T08:59:42.107Z,75.34
2022-08-26T09:00:42.117Z,74.57
2022-08-26T09:01:42.201Z,73.75
2022-08-26T09:02:42.192Z,73.37
2022-08-26T09:03:42.156Z,75.02
2022-08-26T09:04:42.170Z,73.02
2022-08-26T09:05:46.694Z,74.53
2022-08-26T09:06:42.199Z,74.79
2022-08-26T09:07:42.212Z,72.36
2022-08-26T09:08:42.221Z,73.91
2022-08-26T09:09:42.243Z,71.82
2022-08-26T09:10:42.253Z,73.91
2022-08-26T09:11:42.266Z,74.82
2022-08-26T09:12:42.284Z,74.79
2022-08-26T09:13:42.369Z,71.40
2022-08-26T09:14:42.309Z,70.82
2022-08-26T09:15:42.323Z,72.30
2022-08-26T09:16:42.423Z,73.75
2022-08-26T09:17:42.363Z,73.27
2022-08-26T09:18:42.367Z,74.57
2022-08-26T09:19:42.383Z,75.24
2022-08-26T09:20:42.401Z,73.69
2022-08-26T09:21:42.412Z,73.83
2022-08-26T09:22:44.328Z,74.45
2022-08-26T09:23:42.438Z,74.84
2022-08-26T09:24:48.255Z,73.83
2022-08-26T09:25:42.505Z,72.86
2022-08-26T09:26:42.483Z,73.44
2022-08-26T09:27:42.493Z,73.69
2022-08-26T09:28:42.508Z,73.99
2022-08-26T09:29:42.520Z,73.82
2022-08-26T09:30:42.576Z,73.59
2022-08-26T09:31:42.554Z,72.78
2022-08-26T09:32:42.566Z,71.70
2022-08-26T09:33:42.586Z,70.70
2022-08-26T09:34:42.597Z,69.64
2022-08-26T09:35:42.606Z,70.51
2022-08-26T09:36:42.629Z,68.10
2022-08-26T09:37:42.691Z,68.55
2022-08-26T09:38:42.692Z,68.36
2022-08-26T09:39:42.674Z,68.30
2022-08-26T09:40:42.690Z,70.26
2022-08-26T09:41:42.698Z,72.00
2022-08-26T09:42:42.715Z,72.26
2022-08-26T09:43:42.726Z,70.48
2022-08-26T09:44:42.750Z,72.00
2022-08-26T09:45:50.088Z,67.97
2022-08-26T09:46:42.782Z,68.94
2022-08-26T09:47:42.801Z,69.58
2022-08-26T09:48:42.812Z,69.07
2022-08-26T09:49:42.827Z,70.06
2022-08-26T09:50:42.846Z,68.55
2022-08-26T09:51:42.862Z,68.30
2022-08-26T09:52:43.064Z,70.50
2022-08-26T09:53:42.886Z,72.33
2022-08-26T09:54:42.905Z,70.53
2022-08-26T09:55:42.973Z,72.50
2022-08-26T09:56:42.934Z,72.40
2022-08-26T09:57:42.954Z,73.75
2022-08-26T09:58:42.968Z,73.95
2022-08-26T09:59:42.984Z,74.34
2022-08-26T10:00:42.999Z,73.53
2022-08-26T10:01:43.371Z,72.85
2022-08-26T10:02:47.479Z,70.53
2022-08-26T10:03:43.108Z,69.24
2022-08-26T10:04:43.126Z,70.68
2022-08-26T10:05:43.073Z,72.94
2022-08-26T10:06:43.095Z,71.68
2022-08-26T10:07:43.108Z,70.62
2022-08-26T10:08:47.425Z,72.55
2022-08-26T10:09:43.149Z,70.14
2022-08-26T10:10:44.074Z,69.59
2022-08-26T10:11:43.167Z,69.98
2022-08-26T10:12:43.182Z,70.81
2022-08-26T10:13:43.200Z,71.78
2022-08-26T10:15:48.612Z,69.97
2022-08-26T10:16:43.273Z,68.94
2022-08-26T10:17:43.259Z,68.17
2022-08-26T10:18:43.277Z,70.29
2022-08-26T10:19:55.681Z,68.36
2022-08-26T10:20:43.312Z,68.13
2022-08-26T10:21:43.328Z,69.55
2022-08-26T10:22:43.347Z,67.91
2022-08-26T10:23:43.421Z,67.52
2022-08-26T10:24:43.370Z,66.97
2022-08-26T10:25:43.388Z,69.78
2022-08-26T10:26:43.420Z,68.26
2022-08-26T10:27:51.133Z,67.91
2022-08-26T10:28:44.385Z,67.49
2022-08-26T10:29:43.458Z,65.50
2022-08-26T10:30:43.475Z,65.56
2022-08-26T10:31:43.521Z,64.53
2022-08-26T10:32:43.508Z,65.56
2022-08-26T10:33:43.534Z,64.82
2022-08-26T10:34:43.545Z,62.99
2022-08-26T10:35:43.568Z,63.79
2022-08-26T10:37:10.812Z,61.66
2022-08-26T10:37:43.628Z,64.40
2022-08-26T10:38:44.268Z,64.76
2022-08-26T10:39:43.636Z,63.67
2022-08-26T10:40:43.725Z,64.63
2022-08-26T10:41:43.683Z,66.24
2022-08-26T10:42:43.706Z,67.01
2022-08-26T10:43:43.716Z,67.62
2022-08-26T10:44:43.926Z,70.30
2022-08-26T10:45:43.871Z,69.82
2022-08-26T10:46:43.761Z,71.88
2022-08-26T10:47:43.785Z,70.37
2022-08-26T10:48:43.800Z,72.63
2022-08-26T10:49:43.833Z,72.44
2022-08-26T10:50:43.842Z,72.44
2022-08-26T10:51:45.725Z,72.73
2022-08-26T10:52:43.873Z,73.79
2022-08-26T10:53:44.548Z,74.90
2022-08-26T10:54:43.906Z,73.48
2022-08-26T10:55:43.924Z,74.10
2022-08-26T10:56:43.940Z,73.42
2022-08-26T10:57:43.957Z,74.81
2022-08-26T10:58:44.642Z,75.24
2022-08-26T10:59:43.986Z,75.62
2022-08-26T11:00:44.184Z,74.60
2022-08-26T11:01:44.115Z,75.02
2022-08-26T11:02:47.175Z,74.08
2022-08-26T11:03:44.123Z,75.64
2022-08-26T11:04:47.698Z,75.68
2022-08-26T11:05:44.083Z,75.62
2022-08-26T11:06:44.098Z,75.95
2022-08-26T11:07:44.113Z,77.50
2022-08-26T11:08:44.131Z,78.03
2022-08-26T11:09:44.149Z,77.06
2022-08-26T11:10:44.161Z,77.44
2022-08-26T11:11:44.175Z,78.81
2022-08-26T11:12:44.191Z,78.81
2022-08-26T11:13:44.204Z,78.03
2022-08-26T11:14:53.305Z,78.36
2022-08-26T11:15:44.233Z,78.36
2022-08-26T11:16:44.325Z,77.66
2022-08-26T11:17:44.262Z,79.55
2022-08-26T11:18:44.273Z,79.45
2022-08-26T11:20:00.242Z,80.47
2022-08-26T11:20:44.302Z,80.96
2022-08-26T11:21:44.483Z,79.98
2022-08-26T11:22:47.661Z,81.52
2022-08-26T11:23:44.344Z,81.68
2022-08-26T11:24:44.355Z,81.38
2022-08-26T11:25:44.372Z,82.26
2022-08-26T11:26:56.339Z,81.09
2022-08-26T11:27:44.396Z,81.77
2022-08-26T11:28:44.428Z,81.84
2022-08-26T11:29:44.421Z,81.93
2022-08-26T11:30:44.435Z,81.74
2022-08-26T11:31:44.496Z,81.45
2022-08-26T11:32:44.456Z,81.93
2022-08-26T11:33:44.472Z,83.11
2022-08-26T11:34:44.483Z,82.42
2022-08-26T11:35:44.492Z,83.06
2022-08-26T11:36:44.503Z,83.69
2022-08-26T11:37:44.517Z,83.26
2022-08-26T11:38:44.526Z,81.84
2022-08-26T11:39:47.276Z,81.89
2022-08-26T11:40:44.611Z,83.20
2022-08-26T11:41:44.565Z,83.69
2022-08-26T11:42:44.578Z,83.11
2022-08-26T11:43:44.588Z,83.59
2022-08-26T11:44:49.279Z,81.54
2022-08-26T11:45:44.678Z,84.08
2022-08-26T11:46:44.621Z,83.50
2022-08-26T11:47:44.635Z,83.01
2022-08-26T11:48:44.646Z,83.79
2022-08-26T11:49:44.657Z,82.56
2022-08-26T11:50:44.666Z,82.56
2022-08-26T11:51:47.763Z,83.24
2022-08-26T11:52:44.689Z,82.85
2022-08-26T11:53:44.710Z,83.44
2022-08-26T11:54:44.711Z,82.46
2022-08-26T11:55:44.724Z,82.89
2022-08-26T11:56:44.734Z,83.18
2022-08-26T11:57:44.747Z,84.45
2022-08-26T11:58:44.755Z,84.16
2022-08-26T11:59:44.761Z,83.48
2022-08-26T12:00:45.771Z,84.75
2022-08-26T12:01:44.784Z,84.94
2022-08-26T12:02:44.795Z,83.77
2022-08-26T12:03:44.973Z,86.65
2022-08-26T12:04:44.849Z,85.33
2022-08-26T12:05:44.827Z,84.50
2022-08-26T12:06:45.702Z,85.67
2022-08-26T12:07:44.846Z,82.83
2022-08-26T12:08:44.857Z,84.11
2022-08-26T12:09:44.861Z,83.42
2022-08-26T12:10:44.878Z,83.91
2022-08-26T12:11:44.886Z,85.67
2022-08-26T12:12:44.892Z,86.25
2022-08-26T12:13:44.911Z,86.10
2022-08-26T12:14:44.915Z,85.91
2022-08-26T12:15:44.927Z,86.05
2022-08-26T12:16:45.001Z,87.76
2022-08-26T12:17:44.948Z,88.33
2022-08-26T12:18:45.047Z,88.82
2022-08-26T12:19:44.965Z,88.57
2022-08-26T12:20:44.979Z,89.15
2022-08-26T12:21:44.985Z,88.61
2022-08-26T12:22:47.952Z,87.34
2022-08-26T12:23:45.007Z,88.12
2022-08-26T12:24:45.015Z,87.93
2022-08-26T12:25:45.019Z,88.50
2022-08-26T12:26:45.030Z,89.39
2022-08-26T12:27:45.041Z,89.68
2022-08-26T12:28:45.051Z,88.89
2022-08-26T12:29:48.479Z,90.07
2022-08-26T12:30:45.072Z,89.58
2022-08-26T12:31:45.106Z,90.06
2022-08-26T12:32:57.326Z,90.51
2022-08-26T12:33:45.109Z,88.39
2022-08-26T12:34:45.120Z,88.10
2022-08-26T12:35:45.130Z,86.76
2022-08-26T12:36:45.139Z,86.57
2022-08-26T12:37:45.145Z,86.76
2022-08-26T12:38:45.156Z,89.36
2022-08-26T12:39:45.162Z,93.05
2022-08-26T12:40:45.173Z,92.21
2022-08-26T12:41:45.184Z,94.47
2022-08-26T12:42:45.187Z,92.30
2022-08-26T12:43:45.207Z,92.55
2022-08-26T12:44:53.915Z,93.83
2022-08-26T12:45:45.265Z,94.02
2022-08-26T12:46:49.165Z,93.97
2022-08-26T12:47:45.224Z,95.00
2022-08-26T12:48:45.239Z,95.35
2022-08-26T12:49:45.244Z,96.28
2022-08-26T12:50:45.256Z,96.82
2022-08-26T12:51:45.256Z,96.43
2022-08-26T12:52:45.265Z,96.53
2022-08-26T12:53:45.278Z,97.56
2022-08-26T12:54:45.284Z,99.34